sensor_id;sensor_type;location;lat;lon;timestamp;P1;durP1;ratioP1;P2;durP2;ratioP2
75104;SDS011;64778;47.314;8.466;2023-02-10T00:00:56;15.13;;;10.15;;
75104;SDS011;64778;47.314;8.466;2023-02-10T00:03:26;17.27;;;10.13;;
75104;SDS011;64778;47.314;8.466;2023-02-10T00:05:54;18.10;;;9.97;;
75104;SDS011;64778;47.314;8.466;2023-02-10T00:08:22;17.80;;;10.32;;
75104;SDS011;64778;47.314;8.466;2023-02-10T00:10:51;17.25;;;10.60;;
75104;SDS011;64778;47.314;8.466;2023-02-10T00:13:20;15.80;;;9.40;;
75104;SDS011;64778;47.314;8.466;2023-02-10T00:15:46;16.80;;;9.37;;
75104;SDS011;64778;47.314;8.466;2023-02-10T00:18:12;16.58;;;9.80;;
75104;SDS011;64778;47.314;8.466;2023-02-10T00:20:42;16.27;;;9.25;;
75104;SDS011;64778;47.314;8.466;2023-02-10T00:23:07;16.23;;;9.93;;
75104;SDS011;64778;47.314;8.466;2023-02-10T00:25:36;16.27;;;9.93;;
75104;SDS011;64778;47.314;8.466;2023-02-10T00:28:03;16.73;;;9.57;;
75104;SDS011;64778;47.314;8.466;2023-02-10T00:30:29;14.65;;;9.00;;
75104;SDS011;64778;47.314;8.466;2023-02-10T00:32:55;15.40;;;9.50;;
75104;SDS011;64778;47.314;8.466;2023-02-10T00:35:21;16.87;;;9.47;;
75104;SDS011;64778;47.314;8.466;2023-02-10T00:37:47;15.43;;;9.13;;
75104;SDS011;64778;47.314;8.466;2023-02-10T00:40:15;16.00;;;9.75;;
75104;SDS011;64778;47.314;8.466;2023-02-10T00:42:41;16.77;;;9.63;;
75104;SDS011;64778;47.314;8.466;2023-02-10T00:45:11;14.83;;;9.10;;
75104;SDS011;64778;47.314;8.466;2023-02-10T00:47:40;15.45;;;9.45;;
75104;SDS011;64778;47.314;8.466;2023-02-10T00:50:05;14.80;;;9.13;;
75104;SDS011;64778;47.314;8.466;2023-02-10T00:52:33;15.33;;;9.33;;
75104;SDS011;64778;47.314;8.466;2023-02-10T00:55:00;15.52;;;9.48;;
75104;SDS011;64778;47.314;8.466;2023-02-10T00:57:28;16.42;;;9.50;;
75104;SDS011;64778;47.314;8.466;2023-02-10T00:59:56;17.27;;;9.43;;
75104;SDS011;64778;47.314;8.466;2023-02-10T01:02:24;15.52;;;9.77;;
75104;SDS011;64778;47.314;8.466;2023-02-10T01:04:52;14.65;;;9.23;;
75104;SDS011;64778;47.314;8.466;2023-02-10T01:07:18;15.23;;;9.60;;
75104;SDS011;64778;47.314;8.466;2023-02-10T01:09:46;13.45;;;8.00;;
75104;SDS011;64778;47.314;8.466;2023-02-10T01:12:11;15.60;;;8.93;;
75104;SDS011;64778;47.314;8.466;2023-02-10T01:14:37;13.70;;;8.23;;
75104;SDS011;64778;47.314;8.466;2023-02-10T01:17:05;14.95;;;8.52;;
75104;SDS011;64778;47.314;8.466;2023-02-10T01:19:33;13.77;;;8.88;;
75104;SDS011;64778;47.314;8.466;2023-02-10T01:21:58;15.80;;;8.70;;
75104;SDS011;64778;47.314;8.466;2023-02-10T01:24:24;16.05;;;8.57;;
75104;SDS011;64778;47.314;8.466;2023-02-10T01:26:49;14.80;;;8.93;;
75104;SDS011;64778;47.314;8.466;2023-02-10T01:29:15;13.70;;;8.50;;
75104;SDS011;64778;47.314;8.466;2023-02-10T01:31:43;14.38;;;9.00;;
75104;SDS011;64778;47.314;8.466;2023-02-10T01:34:10;14.55;;;8.00;;
75104;SDS011;64778;47.314;8.466;2023-02-10T01:36:39;13.93;;;8.00;;
75104;SDS011;64778;47.314;8.466;2023-02-10T01:39:07;16.38;;;9.13;;
75104;SDS011;64778;47.314;8.466;2023-02-10T01:41:33;13.68;;;8.30;;
75104;SDS011;64778;47.314;8.466;2023-02-10T01:46:31;12.80;;;7.70;;
75104;SDS011;64778;47.314;8.466;2023-02-10T01:48:59;13.00;;;7.60;;
75104;SDS011;64778;47.314;8.466;2023-02-10T01:51:31;12.03;;;7.60;;
75104;SDS011;64778;47.314;8.466;2023-02-10T01:54:05;13.38;;;7.97;;
75104;SDS011;64778;47.314;8.466;2023-02-10T01:56:35;12.95;;;6.97;;
75104;SDS011;64778;47.314;8.466;2023-02-10T01:59:01;11.63;;;6.97;;
75104;SDS011;64778;47.314;8.466;2023-02-10T02:01:26;11.15;;;6.57;;
75104;SDS011;64778;47.314;8.466;2023-02-10T02:03:57;12.03;;;7.00;;
75104;SDS011;64778;47.314;8.466;2023-02-10T02:06:26;11.60;;;6.70;;
75104;SDS011;64778;47.314;8.466;2023-02-10T02:08:51;10.77;;;6.50;;
75104;SDS011;64778;47.314;8.466;2023-02-10T02:11:26;10.13;;;6.67;;
75104;SDS011;64778;47.314;8.466;2023-02-10T02:14:19;10.63;;;6.43;;
75104;SDS011;64778;47.314;8.466;2023-02-10T02:33:11;12.10;;;6.28;;
75104;SDS011;64778;47.314;8.466;2023-02-10T02:35:36;11.73;;;6.80;;
75104;SDS011;64778;47.314;8.466;2023-02-10T02:38:08;10.82;;;6.40;;
75104;SDS011;64778;47.314;8.466;2023-02-10T02:40:36;11.70;;;6.20;;
75104;SDS011;64778;47.314;8.466;2023-02-10T02:43:04;11.57;;;6.40;;
75104;SDS011;64778;47.314;8.466;2023-02-10T02:45:37;10.70;;;6.25;;
75104;SDS011;64778;47.314;8.466;2023-02-10T02:48:43;11.45;;;6.18;;
75104;SDS011;64778;47.314;8.466;2023-02-10T02:51:31;9.85;;;6.47;;
75104;SDS011;64778;47.314;8.466;2023-02-10T02:54:14;10.93;;;6.22;;
75104;SDS011;64778;47.314;8.466;2023-02-10T02:56:46;9.65;;;6.03;;
75104;SDS011;64778;47.314;8.466;2023-02-10T02:59:38;11.27;;;6.03;;
75104;SDS011;64778;47.314;8.466;2023-02-10T03:02:11;10.33;;;5.93;;
75104;SDS011;64778;47.314;8.466;2023-02-10T03:04:45;11.17;;;6.43;;
75104;SDS011;64778;47.314;8.466;2023-02-10T03:07:13;11.02;;;6.60;;
75104;SDS011;64778;47.314;8.466;2023-02-10T03:09:39;10.13;;;6.10;;
75104;SDS011;64778;47.314;8.466;2023-02-10T03:12:05;13.07;;;7.00;;
75104;SDS011;64778;47.314;8.466;2023-02-10T03:14:31;10.55;;;6.30;;
75104;SDS011;64778;47.314;8.466;2023-02-10T03:16:56;9.83;;;5.80;;
75104;SDS011;64778;47.314;8.466;2023-02-10T03:19:27;10.05;;;5.90;;
75104;SDS011;64778;47.314;8.466;2023-02-10T03:21:53;8.88;;;5.82;;
75104;SDS011;64778;47.314;8.466;2023-02-10T03:24:20;11.00;;;6.10;;
75104;SDS011;64778;47.314;8.466;2023-02-10T03:26:49;10.40;;;5.95;;
75104;SDS011;64778;47.314;8.466;2023-02-10T03:29:14;10.55;;;6.10;;
75104;SDS011;64778;47.314;8.466;2023-02-10T03:31:43;10.27;;;6.05;;
75104;SDS011;64778;47.314;8.466;2023-02-10T03:34:13;12.83;;;5.97;;
75104;SDS011;64778;47.314;8.466;2023-02-10T03:36:39;11.25;;;6.63;;
75104;SDS011;64778;47.314;8.466;2023-02-10T03:39:04;10.90;;;6.50;;
75104;SDS011;64778;47.314;8.466;2023-02-10T03:41:30;10.68;;;6.25;;
75104;SDS011;64778;47.314;8.466;2023-02-10T03:43:56;9.48;;;6.10;;
75104;SDS011;64778;47.314;8.466;2023-02-10T03:46:24;11.93;;;6.20;;
75104;SDS011;64778;47.314;8.466;2023-02-10T03:48:51;10.55;;;6.40;;
75104;SDS011;64778;47.314;8.466;2023-02-10T03:51:17;10.35;;;6.35;;
75104;SDS011;64778;47.314;8.466;2023-02-10T03:53:45;13.13;;;6.60;;
75104;SDS011;64778;47.314;8.466;2023-02-10T03:56:11;12.53;;;7.30;;
75104;SDS011;64778;47.314;8.466;2023-02-10T03:58:36;11.93;;;7.23;;
75104;SDS011;64778;47.314;8.466;2023-02-10T04:01:09;10.52;;;6.53;;
75104;SDS011;64778;47.314;8.466;2023-02-10T04:03:43;12.10;;;6.90;;
75104;SDS011;64778;47.314;8.466;2023-02-10T04:06:12;10.52;;;6.78;;
75104;SDS011;64778;47.314;8.466;2023-02-10T04:08:38;12.18;;;6.72;;
75104;SDS011;64778;47.314;8.466;2023-02-10T04:11:04;13.02;;;7.22;;
75104;SDS011;64778;47.314;8.466;2023-02-10T04:13:31;12.27;;;7.40;;
75104;SDS011;64778;47.314;8.466;2023-02-10T04:16:06;10.90;;;7.00;;
75104;SDS011;64778;47.314;8.466;2023-02-10T04:18:33;11.82;;;7.38;;
75104;SDS011;64778;47.314;8.466;2023-02-10T04:21:00;13.13;;;7.17;;
75104;SDS011;64778;47.314;8.466;2023-02-10T04:23:29;11.00;;;6.78;;
75104;SDS011;64778;47.314;8.466;2023-02-10T04:25:57;12.70;;;6.95;;
75104;SDS011;64778;47.314;8.466;2023-02-10T04:28:26;12.15;;;6.88;;
75104;SDS011;64778;47.314;8.466;2023-02-10T04:30:55;11.32;;;6.25;;
75104;SDS011;64778;47.314;8.466;2023-02-10T04:33:25;10.68;;;6.53;;
75104;SDS011;64778;47.314;8.466;2023-02-10T04:35:56;11.52;;;7.03;;
75104;SDS011;64778;47.314;8.466;2023-02-10T04:38:24;11.70;;;7.18;;
75104;SDS011;64778;47.314;8.466;2023-02-10T04:40:50;11.57;;;6.73;;
75104;SDS011;64778;47.314;8.466;2023-02-10T04:43:15;10.83;;;6.60;;
75104;SDS011;64778;47.314;8.466;2023-02-10T04:45:42;13.63;;;7.37;;
75104;SDS011;64778;47.314;8.466;2023-02-10T04:48:09;11.15;;;6.57;;
75104;SDS011;64778;47.314;8.466;2023-02-10T04:50:36;11.23;;;6.55;;
75104;SDS011;64778;47.314;8.466;2023-02-10T04:53:05;9.68;;;6.03;;
75104;SDS011;64778;47.314;8.466;2023-02-10T04:55:31;10.87;;;6.47;;
75104;SDS011;64778;47.314;8.466;2023-02-10T04:57:59;11.50;;;6.68;;
75104;SDS011;64778;47.314;8.466;2023-02-10T05:00:27;10.07;;;6.05;;
75104;SDS011;64778;47.314;8.466;2023-02-10T05:02:53;11.80;;;6.72;;
75104;SDS011;64778;47.314;8.466;2023-02-10T05:05:19;11.52;;;6.57;;
75104;SDS011;64778;47.314;8.466;2023-02-10T05:07:44;13.27;;;6.80;;
75104;SDS011;64778;47.314;8.466;2023-02-10T05:10:10;10.05;;;6.45;;
75104;SDS011;64778;47.314;8.466;2023-02-10T05:12:41;10.85;;;6.07;;
75104;SDS011;64778;47.314;8.466;2023-02-10T05:15:06;12.23;;;6.57;;
75104;SDS011;64778;47.314;8.466;2023-02-10T05:17:37;11.83;;;6.60;;
75104;SDS011;64778;47.314;8.466;2023-02-10T05:20:06;9.80;;;5.93;;
75104;SDS011;64778;47.314;8.466;2023-02-10T05:22:39;10.52;;;6.20;;
75104;SDS011;64778;47.314;8.466;2023-02-10T05:25:07;11.00;;;6.20;;
75104;SDS011;64778;47.314;8.466;2023-02-10T05:27:40;10.30;;;6.57;;
75104;SDS011;64778;47.314;8.466;2023-02-10T05:30:06;12.57;;;6.60;;
75104;SDS011;64778;47.314;8.466;2023-02-10T05:32:34;12.75;;;6.43;;
75104;SDS011;64778;47.314;8.466;2023-02-10T05:34:59;12.83;;;7.20;;
75104;SDS011;64778;47.314;8.466;2023-02-10T05:37:25;12.70;;;6.90;;
75104;SDS011;64778;47.314;8.466;2023-02-10T05:39:53;11.45;;;6.90;;
75104;SDS011;64778;47.314;8.466;2023-02-10T05:42:18;11.13;;;6.72;;
75104;SDS011;64778;47.314;8.466;2023-02-10T05:44:44;11.02;;;6.68;;
75104;SDS011;64778;47.314;8.466;2023-02-10T05:47:14;12.07;;;6.05;;
75104;SDS011;64778;47.314;8.466;2023-02-10T05:49:42;10.57;;;6.10;;
75104;SDS011;64778;47.314;8.466;2023-02-10T05:52:08;11.27;;;6.13;;
75104;SDS011;64778;47.314;8.466;2023-02-10T05:54:34;9.48;;;5.88;;
75104;SDS011;64778;47.314;8.466;2023-02-10T05:57:02;11.95;;;6.32;;
75104;SDS011;64778;47.314;8.466;2023-02-10T05:59:28;10.05;;;6.00;;
75104;SDS011;64778;47.314;8.466;2023-02-10T06:01:54;11.15;;;6.50;;
75104;SDS011;64778;47.314;8.466;2023-02-10T06:04:20;10.73;;;6.20;;
75104;SDS011;64778;47.314;8.466;2023-02-10T06:06:46;11.95;;;6.30;;
75104;SDS011;64778;47.314;8.466;2023-02-10T06:09:11;10.85;;;6.32;;
75104;SDS011;64778;47.314;8.466;2023-02-10T06:11:42;10.47;;;5.90;;
75104;SDS011;64778;47.314;8.466;2023-02-10T06:14:08;11.90;;;6.10;;
75104;SDS011;64778;47.314;8.466;2023-02-10T06:16:33;10.00;;;6.03;;
75104;SDS011;64778;47.314;8.466;2023-02-10T06:18:59;10.30;;;5.72;;
75104;SDS011;64778;47.314;8.466;2023-02-10T06:21:25;11.95;;;6.20;;
75104;SDS011;64778;47.314;8.466;2023-02-10T06:23:51;10.10;;;6.20;;
75104;SDS011;64778;47.314;8.466;2023-02-10T06:26:17;11.43;;;6.85;;
75104;SDS011;64778;47.314;8.466;2023-02-10T06:28:45;13.27;;;7.43;;
75104;SDS011;64778;47.314;8.466;2023-02-10T06:31:13;14.45;;;7.85;;
75104;SDS011;64778;47.314;8.466;2023-02-10T06:33:41;14.32;;;8.65;;
75104;SDS011;64778;47.314;8.466;2023-02-10T06:36:07;13.07;;;8.15;;
75104;SDS011;64778;47.314;8.466;2023-02-10T06:38:34;11.97;;;8.30;;
75104;SDS011;64778;47.314;8.466;2023-02-10T06:41:03;11.93;;;7.03;;
75104;SDS011;64778;47.314;8.466;2023-02-10T06:43:29;13.23;;;7.75;;
75104;SDS011;64778;47.314;8.466;2023-02-10T06:45:55;11.63;;;7.63;;
75104;SDS011;64778;47.314;8.466;2023-02-10T06:48:25;12.73;;;7.55;;
75104;SDS011;64778;47.314;8.466;2023-02-10T06:50:51;11.65;;;7.85;;
75104;SDS011;64778;47.314;8.466;2023-02-10T06:53:17;13.73;;;7.70;;
75104;SDS011;64778;47.314;8.466;2023-02-10T06:55:46;13.15;;;7.18;;
75104;SDS011;64778;47.314;8.466;2023-02-10T06:58:12;9.10;;;5.97;;
75104;SDS011;64778;47.314;8.466;2023-02-10T07:00:40;7.88;;;4.85;;
75104;SDS011;64778;47.314;8.466;2023-02-10T07:03:08;10.05;;;5.65;;
75104;SDS011;64778;47.314;8.466;2023-02-10T07:05:35;8.68;;;5.18;;
75104;SDS011;64778;47.314;8.466;2023-02-10T07:08:04;10.95;;;6.00;;
75104;SDS011;64778;47.314;8.466;2023-02-10T07:10:36;10.38;;;5.85;;
75104;SDS011;64778;47.314;8.466;2023-02-10T07:13:04;9.43;;;4.97;;
75104;SDS011;64778;47.314;8.466;2023-02-10T07:15:30;8.57;;;4.55;;
75104;SDS011;64778;47.314;8.466;2023-02-10T07:17:56;7.00;;;4.10;;
75104;SDS011;64778;47.314;8.466;2023-02-10T07:20:22;9.10;;;3.90;;
75104;SDS011;64778;47.314;8.466;2023-02-10T07:22:50;7.72;;;3.55;;
75104;SDS011;64778;47.314;8.466;2023-02-10T07:25:22;6.45;;;3.90;;
75104;SDS011;64778;47.314;8.466;2023-02-10T07:27:50;8.60;;;4.30;;
75104;SDS011;64778;47.314;8.466;2023-02-10T07:30:16;11.45;;;4.20;;
75104;SDS011;64778;47.314;8.466;2023-02-10T07:32:46;8.77;;;4.13;;
75104;SDS011;64778;47.314;8.466;2023-02-10T07:35:12;10.00;;;4.53;;
75104;SDS011;64778;47.314;8.466;2023-02-10T07:37:38;8.75;;;3.90;;
75104;SDS011;64778;47.314;8.466;2023-02-10T07:40:04;8.05;;;3.53;;
75104;SDS011;64778;47.314;8.466;2023-02-10T07:42:31;6.38;;;3.50;;
75104;SDS011;64778;47.314;8.466;2023-02-10T07:44:59;6.90;;;3.30;;
75104;SDS011;64778;47.314;8.466;2023-02-10T07:47:28;7.22;;;3.47;;
75104;SDS011;64778;47.314;8.466;2023-02-10T07:49:56;10.77;;;3.70;;
75104;SDS011;64778;47.314;8.466;2023-02-10T07:54:52;8.57;;;4.15;;
75104;SDS011;64778;47.314;8.466;2023-02-10T07:57:18;9.20;;;4.38;;
75104;SDS011;64778;47.314;8.466;2023-02-10T07:59:44;10.20;;;4.82;;
75104;SDS011;64778;47.314;8.466;2023-02-10T08:02:09;11.13;;;4.88;;
75104;SDS011;64778;47.314;8.466;2023-02-10T08:04:38;10.60;;;4.88;;
75104;SDS011;64778;47.314;8.466;2023-02-10T08:07:04;10.90;;;4.40;;
75104;SDS011;64778;47.314;8.466;2023-02-10T08:09:29;10.27;;;4.40;;
75104;SDS011;64778;47.314;8.466;2023-02-10T08:11:57;9.82;;;4.75;;
75104;SDS011;64778;47.314;8.466;2023-02-10T08:14:25;10.50;;;5.18;;
75104;SDS011;64778;47.314;8.466;2023-02-10T08:16:55;9.77;;;4.85;;
75104;SDS011;64778;47.314;8.466;2023-02-10T08:19:26;10.60;;;5.30;;
75104;SDS011;64778;47.314;8.466;2023-02-10T08:21:53;9.82;;;4.90;;
75104;SDS011;64778;47.314;8.466;2023-02-10T08:24:19;10.15;;;5.10;;
75104;SDS011;64778;47.314;8.466;2023-02-10T08:26:47;23.33;;;10.70;;
75104;SDS011;64778;47.314;8.466;2023-02-10T08:29:13;22.92;;;11.60;;
75104;SDS011;64778;47.314;8.466;2023-02-10T08:31:38;22.55;;;10.93;;
75104;SDS011;64778;47.314;8.466;2023-02-10T08:36:30;17.80;;;8.38;;
75104;SDS011;64778;47.314;8.466;2023-02-10T08:38:58;14.32;;;8.68;;
75104;SDS011;64778;47.314;8.466;2023-02-10T08:41:23;14.70;;;7.75;;
75104;SDS011;64778;47.314;8.466;2023-02-10T08:43:50;19.30;;;8.75;;
75104;SDS011;64778;47.314;8.466;2023-02-10T08:46:16;15.43;;;9.15;;
75104;SDS011;64778;47.314;8.466;2023-02-10T08:48:41;16.38;;;9.07;;
75104;SDS011;64778;47.314;8.466;2023-02-10T08:51:08;15.25;;;8.23;;
75104;SDS011;64778;47.314;8.466;2023-02-10T08:53:35;12.25;;;6.07;;
75104;SDS011;64778;47.314;8.466;2023-02-10T08:58:28;12.52;;;6.75;;
75104;SDS011;64778;47.314;8.466;2023-02-10T09:00:56;16.58;;;7.70;;
75104;SDS011;64778;47.314;8.466;2023-02-10T09:03:21;19.15;;;8.30;;
75104;SDS011;64778;47.314;8.466;2023-02-10T09:05:49;15.60;;;7.57;;
75104;SDS011;64778;47.314;8.466;2023-02-10T09:08:16;15.48;;;7.65;;
75104;SDS011;64778;47.314;8.466;2023-02-10T09:10:43;14.63;;;7.15;;
75104;SDS011;64778;47.314;8.466;2023-02-10T09:13:09;15.10;;;6.85;;
75104;SDS011;64778;47.314;8.466;2023-02-10T09:15:37;11.70;;;5.75;;
75104;SDS011;64778;47.314;8.466;2023-02-10T09:18:03;14.45;;;6.45;;
75104;SDS011;64778;47.314;8.466;2023-02-10T09:20:32;16.08;;;7.15;;
75104;SDS011;64778;47.314;8.466;2023-02-10T09:22:58;14.07;;;6.60;;
75104;SDS011;64778;47.314;8.466;2023-02-10T09:25:26;10.07;;;6.30;;
75104;SDS011;64778;47.314;8.466;2023-02-10T09:27:54;13.50;;;6.53;;
75104;SDS011;64778;47.314;8.466;2023-02-10T09:30:25;17.52;;;6.85;;
75104;SDS011;64778;47.314;8.466;2023-02-10T09:32:55;10.38;;;5.72;;
75104;SDS011;64778;47.314;8.466;2023-02-10T09:35:21;14.25;;;6.47;;
75104;SDS011;64778;47.314;8.466;2023-02-10T09:37:47;11.55;;;6.00;;
75104;SDS011;64778;47.314;8.466;2023-02-10T09:40:22;9.88;;;5.13;;
75104;SDS011;64778;47.314;8.466;2023-02-10T09:45:38;10.60;;;5.40;;
75104;SDS011;64778;47.314;8.466;2023-02-10T09:53:19;12.82;;;6.32;;
75104;SDS011;64778;47.314;8.466;2023-02-10T09:55:56;12.00;;;5.60;;
75104;SDS011;64778;47.314;8.466;2023-02-10T10:01:34;9.20;;;5.22;;
75104;SDS011;64778;47.314;8.466;2023-02-10T10:04:05;9.27;;;5.10;;
75104;SDS011;64778;47.314;8.466;2023-02-10T10:06:37;11.43;;;5.60;;
75104;SDS011;64778;47.314;8.466;2023-02-10T10:14:04;13.00;;;5.63;;
75104;SDS011;64778;47.314;8.466;2023-02-10T10:46:03;12.90;;;6.65;;
75104;SDS011;64778;47.314;8.466;2023-02-10T10:51:06;10.77;;;6.10;;
75104;SDS011;64778;47.314;8.466;2023-02-10T10:53:37;11.25;;;6.28;;
75104;SDS011;64778;47.314;8.466;2023-02-10T10:58:49;10.15;;;6.78;;
75104;SDS011;64778;47.314;8.466;2023-02-10T11:01:16;13.77;;;6.65;;
75104;SDS011;64778;47.314;8.466;2023-02-10T11:03:43;12.15;;;6.22;;
75104;SDS011;64778;47.314;8.466;2023-02-10T11:11:12;12.77;;;7.20;;
75104;SDS011;64778;47.314;8.466;2023-02-10T11:13:49;14.48;;;6.95;;
75104;SDS011;64778;47.314;8.466;2023-02-10T11:16:20;14.82;;;7.88;;
75104;SDS011;64778;47.314;8.466;2023-02-10T11:54:36;10.45;;;6.55;;
75104;SDS011;64778;47.314;8.466;2023-02-10T11:57:08;11.95;;;7.10;;
75104;SDS011;64778;47.314;8.466;2023-02-10T12:19:24;15.55;;;8.45;;
75104;SDS011;64778;47.314;8.466;2023-02-10T12:22:02;12.27;;;8.20;;
75104;SDS011;64778;47.314;8.466;2023-02-10T12:59:11;12.52;;;8.20;;
75104;SDS011;64778;47.314;8.466;2023-02-10T13:01:46;12.63;;;7.50;;
75104;SDS011;64778;47.314;8.466;2023-02-10T13:04:22;14.60;;;7.15;;
75104;SDS011;64778;47.314;8.466;2023-02-10T13:13:15;11.05;;;7.25;;
75104;SDS011;64778;47.314;8.466;2023-02-10T13:16:06;11.13;;;7.38;;
75104;SDS011;64778;47.314;8.466;2023-02-10T13:18:39;11.10;;;7.40;;
75104;SDS011;64778;47.314;8.466;2023-02-10T13:21:16;13.25;;;7.38;;
75104;SDS011;64778;47.314;8.466;2023-02-10T13:24:03;11.18;;;7.22;;
75104;SDS011;64778;47.314;8.466;2023-02-10T13:32:22;12.07;;;8.27;;
75104;SDS011;64778;47.314;8.466;2023-02-10T13:35:04;13.15;;;8.18;;
75104;SDS011;64778;47.314;8.466;2023-02-10T13:40:20;14.52;;;9.40;;
75104;SDS011;64778;47.314;8.466;2023-02-10T13:42:51;14.13;;;9.23;;
75104;SDS011;64778;47.314;8.466;2023-02-10T13:45:20;13.93;;;8.97;;
75104;SDS011;64778;47.314;8.466;2023-02-10T13:52:56;13.93;;;9.65;;
75104;SDS011;64778;47.314;8.466;2023-02-10T13:55:27;12.87;;;8.80;;
75104;SDS011;64778;47.314;8.466;2023-02-10T14:13:43;13.75;;;7.97;;
75104;SDS011;64778;47.314;8.466;2023-02-10T14:16:36;10.50;;;7.50;;
75104;SDS011;64778;47.314;8.466;2023-02-10T14:19:06;12.85;;;8.02;;
75104;SDS011;64778;47.314;8.466;2023-02-10T14:21:47;11.38;;;7.60;;
75104;SDS011;64778;47.314;8.466;2023-02-10T14:26:50;12.23;;;7.85;;
75104;SDS011;64778;47.314;8.466;2023-02-10T14:29:20;11.95;;;7.47;;
75104;SDS011;64778;47.314;8.466;2023-02-10T14:31:50;12.65;;;8.35;;
75104;SDS011;64778;47.314;8.466;2023-02-10T14:34:25;11.18;;;7.47;;
75104;SDS011;64778;47.314;8.466;2023-02-10T14:39:26;14.32;;;8.23;;
75104;SDS011;64778;47.314;8.466;2023-02-10T14:41:57;11.88;;;8.27;;
75104;SDS011;64778;47.314;8.466;2023-02-10T14:47:00;11.32;;;7.78;;
75104;SDS011;64778;47.314;8.466;2023-02-10T14:49:28;11.48;;;7.80;;
75104;SDS011;64778;47.314;8.466;2023-02-10T14:52:00;12.27;;;7.88;;
75104;SDS011;64778;47.314;8.466;2023-02-10T14:54:26;10.50;;;8.13;;
75104;SDS011;64778;47.314;8.466;2023-02-10T14:56:56;10.55;;;7.82;;
75104;SDS011;64778;47.314;8.466;2023-02-10T14:59:29;12.00;;;8.10;;
75104;SDS011;64778;47.314;8.466;2023-02-10T15:02:00;9.60;;;7.78;;
75104;SDS011;64778;47.314;8.466;2023-02-10T15:04:37;12.55;;;8.38;;
75104;SDS011;64778;47.314;8.466;2023-02-10T15:07:06;11.02;;;8.23;;
75104;SDS011;64778;47.314;8.466;2023-02-10T15:09:42;12.50;;;8.00;;
75104;SDS011;64778;47.314;8.466;2023-02-10T15:12:08;13.88;;;8.38;;
75104;SDS011;64778;47.314;8.466;2023-02-10T15:15:02;11.18;;;8.02;;
75104;SDS011;64778;47.314;8.466;2023-02-10T15:17:56;11.55;;;8.63;;
75104;SDS011;64778;47.314;8.466;2023-02-10T15:20:31;10.63;;;7.65;;
75104;SDS011;64778;47.314;8.466;2023-02-10T15:28:37;11.23;;;8.52;;
75104;SDS011;64778;47.314;8.466;2023-02-10T15:33:27;11.55;;;8.27;;
75104;SDS011;64778;47.314;8.466;2023-02-10T15:39:04;9.32;;;7.70;;
75104;SDS011;64778;47.314;8.466;2023-02-10T15:41:43;14.93;;;8.32;;
75104;SDS011;64778;47.314;8.466;2023-02-10T15:49:54;13.15;;;8.55;;
75104;SDS011;64778;47.314;8.466;2023-02-10T15:52:23;11.82;;;8.27;;
75104;SDS011;64778;47.314;8.466;2023-02-10T15:54:55;13.98;;;8.35;;
75104;SDS011;64778;47.314;8.466;2023-02-10T15:57:25;13.13;;;9.10;;
75104;SDS011;64778;47.314;8.466;2023-02-10T15:59:51;12.70;;;9.27;;
75104;SDS011;64778;47.314;8.466;2023-02-10T16:02:20;12.65;;;8.13;;
75104;SDS011;64778;47.314;8.466;2023-02-10T16:09:39;13.93;;;8.10;;
75104;SDS011;64778;47.314;8.466;2023-02-10T16:12:07;14.60;;;9.73;;
75104;SDS011;64778;47.314;8.466;2023-02-10T16:19:34;14.30;;;7.93;;
75104;SDS011;64778;47.314;8.466;2023-02-10T16:24:30;14.32;;;8.43;;
75104;SDS011;64778;47.314;8.466;2023-02-10T16:26:58;16.45;;;8.77;;
75104;SDS011;64778;47.314;8.466;2023-02-10T16:29:27;18.88;;;8.25;;
75104;SDS011;64778;47.314;8.466;2023-02-10T16:31:54;19.23;;;9.18;;
75104;SDS011;64778;47.314;8.466;2023-02-10T16:34:24;15.02;;;8.80;;
75104;SDS011;64778;47.314;8.466;2023-02-10T16:36:53;14.68;;;8.73;;
75104;SDS011;64778;47.314;8.466;2023-02-10T16:39:22;15.82;;;9.40;;
75104;SDS011;64778;47.314;8.466;2023-02-10T16:41:53;16.42;;;9.30;;
75104;SDS011;64778;47.314;8.466;2023-02-10T16:44:22;21.08;;;9.00;;
75104;SDS011;64778;47.314;8.466;2023-02-10T16:46:48;17.70;;;9.68;;
75104;SDS011;64778;47.314;8.466;2023-02-10T16:49:14;20.60;;;11.98;;
75104;SDS011;64778;47.314;8.466;2023-02-10T16:51:46;19.50;;;11.68;;
75104;SDS011;64778;47.314;8.466;2023-02-10T16:54:12;17.63;;;11.50;;
75104;SDS011;64778;47.314;8.466;2023-02-10T16:56:39;19.77;;;11.57;;
75104;SDS011;64778;47.314;8.466;2023-02-10T16:59:09;19.13;;;11.57;;
75104;SDS011;64778;47.314;8.466;2023-02-10T17:01:41;18.85;;;12.30;;
75104;SDS011;64778;47.314;8.466;2023-02-10T17:04:08;21.42;;;13.20;;
75104;SDS011;64778;47.314;8.466;2023-02-10T17:09:04;20.15;;;10.63;;
75104;SDS011;64778;47.314;8.466;2023-02-10T17:11:34;16.77;;;9.85;;
75104;SDS011;64778;47.314;8.466;2023-02-10T17:13:59;19.73;;;10.50;;
75104;SDS011;64778;47.314;8.466;2023-02-10T17:16:30;19.20;;;9.68;;
75104;SDS011;64778;47.314;8.466;2023-02-10T17:19:02;19.55;;;10.20;;
75104;SDS011;64778;47.314;8.466;2023-02-10T17:21:31;20.80;;;9.60;;
75104;SDS011;64778;47.314;8.466;2023-02-10T17:23:59;22.70;;;10.20;;
75104;SDS011;64778;47.314;8.466;2023-02-10T17:26:30;17.23;;;9.68;;
75104;SDS011;64778;47.314;8.466;2023-02-10T17:28:55;20.40;;;10.88;;
75104;SDS011;64778;47.314;8.466;2023-02-10T17:31:22;20.20;;;10.32;;
75104;SDS011;64778;47.314;8.466;2023-02-10T17:33:49;19.67;;;11.90;;
75104;SDS011;64778;47.314;8.466;2023-02-10T17:36:21;20.33;;;13.00;;
75104;SDS011;64778;47.314;8.466;2023-02-10T17:38:51;20.00;;;12.73;;
75104;SDS011;64778;47.314;8.466;2023-02-10T17:41:20;20.20;;;12.60;;
75104;SDS011;64778;47.314;8.466;2023-02-10T17:43:50;18.73;;;12.27;;
75104;SDS011;64778;47.314;8.466;2023-02-10T17:46:18;19.75;;;12.32;;
75104;SDS011;64778;47.314;8.466;2023-02-10T17:48:44;20.27;;;12.73;;
75104;SDS011;64778;47.314;8.466;2023-02-10T17:51:13;22.23;;;13.13;;
75104;SDS011;64778;47.314;8.466;2023-02-10T17:53:48;23.83;;;13.30;;
75104;SDS011;64778;47.314;8.466;2023-02-10T17:56:20;23.45;;;13.20;;
75104;SDS011;64778;47.314;8.466;2023-02-10T17:58:48;22.33;;;13.32;;
75104;SDS011;64778;47.314;8.466;2023-02-10T18:01:23;23.33;;;12.80;;
75104;SDS011;64778;47.314;8.466;2023-02-10T18:03:50;20.58;;;12.73;;
75104;SDS011;64778;47.314;8.466;2023-02-10T18:06:17;22.75;;;13.30;;
75104;SDS011;64778;47.314;8.466;2023-02-10T18:08:43;20.97;;;12.60;;
75104;SDS011;64778;47.314;8.466;2023-02-10T18:11:10;21.42;;;13.02;;
75104;SDS011;64778;47.314;8.466;2023-02-10T18:13:36;22.65;;;13.23;;
75104;SDS011;64778;47.314;8.466;2023-02-10T18:16:09;21.45;;;13.48;;
75104;SDS011;64778;47.314;8.466;2023-02-10T18:18:35;22.73;;;13.32;;
75104;SDS011;64778;47.314;8.466;2023-02-10T18:21:01;21.80;;;13.77;;
75104;SDS011;64778;47.314;8.466;2023-02-10T18:23:27;21.23;;;13.63;;
75104;SDS011;64778;47.314;8.466;2023-02-10T18:25:55;23.07;;;13.93;;
75104;SDS011;64778;47.314;8.466;2023-02-10T18:28:24;22.58;;;13.77;;
75104;SDS011;64778;47.314;8.466;2023-02-10T18:30:52;23.38;;;14.30;;
75104;SDS011;64778;47.314;8.466;2023-02-10T18:33:23;21.97;;;13.77;;
75104;SDS011;64778;47.314;8.466;2023-02-10T18:35:49;19.43;;;13.10;;
75104;SDS011;64778;47.314;8.466;2023-02-10T18:38:21;20.97;;;12.80;;
75104;SDS011;64778;47.314;8.466;2023-02-10T18:40:47;22.60;;;13.35;;
75104;SDS011;64778;47.314;8.466;2023-02-10T18:43:17;27.33;;;16.50;;
75104;SDS011;64778;47.314;8.466;2023-02-10T18:45:43;27.27;;;16.52;;
75104;SDS011;64778;47.314;8.466;2023-02-10T18:48:14;25.63;;;14.83;;
75104;SDS011;64778;47.314;8.466;2023-02-10T18:50:40;19.50;;;12.73;;